PWSweather.com
Personal Weather Stations
Station Observations
KM01CL
Kitemaniak 01, Castiglione Del LagoIT 06061

Kitemaniak 01Castiglione Del LagoIT 06061

Lat: 43.133808, Lon: 12.045753

Elevation: 997

Station Type: Ventus W831

High Low Average
Temperature 42.1°F5.6°C 38.7°F3.7°C 41.3°F5.2°C
Dew Point 29.0°F-1.7°C 26.1°F-3.3°C 27.7°F-2.4°C
Winds 23.5 mph 37.8 kmh 9.8 mph 15.8 kmh 15.0 mph NE24.1 kmh NE
Wind Gusts 26.0 mph41.8 kmh 11.4 mph18.3 kmh 16.0 mph25.7 kmh
Humidity 64% 55% 58%
Pressure 30.37 in1028.4 mb 30.31 in1026.4 mb -
Precipitation 0.00 in0.0 mm - -
Hour Temp Dew Point Humidity Winds Wind Gusts Pressure Precip Precip Rate Daily Precip Total
12:00 AM 42.1°F5.6°C 27.5°F-2.5°C 56% 18.3 mph NNE29.5 kmh NNE 21.3 mph34.3 kmh 30.31 in1026.4 mb 0.00 in0.0 mm 0.00 in0.0 mm 0.00 in0.0 mm
12:02 AM 41.9°F5.5°C 26.9°F-2.8°C 55% 19.7 mph NNE31.7 kmh NNE 21.3 mph34.3 kmh 30.31 in1026.4 mb 0.00 in0.0 mm 0.00 in0.0 mm 0.00 in0.0 mm
12:04 AM 42.1°F5.6°C 27.1°F-2.7°C 55% 17.5 mph NNE28.2 kmh NNE 19.0 mph30.6 kmh 30.32 in1026.8 mb 0.00 in0.0 mm 0.00 in0.0 mm 0.00 in0.0 mm
12:06 AM 42.1°F5.6°C 27.5°F-2.5°C 56% 18.3 mph NNE29.5 kmh NNE 19.7 mph31.7 kmh 30.31 in1026.4 mb 0.00 in0.0 mm 0.00 in0.0 mm 0.00 in0.0 mm
12:08 AM 42.1°F5.6°C 28.0°F-2.2°C 57% 19.0 mph NNE30.6 kmh NNE 20.6 mph33.2 kmh 30.31 in1026.4 mb 0.00 in0.0 mm 0.00 in0.0 mm 0.00 in0.0 mm
12:10 AM 42.1°F5.6°C 28.0°F-2.2°C 57% 23.5 mph NNE37.8 kmh NNE 26.0 mph41.8 kmh 30.32 in1026.8 mb 0.00 in0.0 mm 0.00 in0.0 mm 0.00 in0.0 mm
12:12 AM 42.1°F5.6°C 28.0°F-2.2°C 57% 23.5 mph NNE37.8 kmh NNE 26.0 mph41.8 kmh 30.32 in1026.8 mb 0.00 in0.0 mm 0.00 in0.0 mm 0.00 in0.0 mm
12:15 AM 42.1°F5.6°C 28.0°F-2.2°C 57% 19.7 mph NNE31.7 kmh NNE 21.3 mph34.3 kmh 30.32 in1026.8 mb 0.00 in0.0 mm 0.00 in0.0 mm 0.00 in0.0 mm
12:16 AM 42.1°F5.6°C 28.0°F-2.2°C 57% 19.0 mph NNE30.6 kmh NNE 20.6 mph33.2 kmh 30.31 in1026.4 mb 0.00 in0.0 mm 0.00 in0.0 mm 0.00 in0.0 mm
12:18 AM 42.1°F5.6°C 28.8°F-1.8°C 59% 20.6 mph NNE33.2 kmh NNE 22.2 mph35.7 kmh 30.32 in1026.8 mb 0.00 in0.0 mm 0.00 in0.0 mm 0.00 in0.0 mm
12:20 AM 41.9°F5.5°C 28.6°F-1.9°C 59% 20.6 mph NNE33.2 kmh NNE 22.2 mph35.7 kmh 30.32 in1026.8 mb 0.00 in0.0 mm 0.00 in0.0 mm 0.00 in0.0 mm
12:22 AM 41.9°F5.5°C 28.6°F-1.9°C 59% 20.6 mph 33.2 kmh 22.2 mph35.7 kmh 30.32 in1026.8 mb 0.00 in0.0 mm 0.00 in0.0 mm 0.00 in0.0 mm
12:24 AM 41.9°F5.5°C 28.6°F-1.9°C 59% 16.8 mph NNE27.0 kmh NNE 18.3 mph29.5 kmh 30.32 in1026.8 mb 0.00 in0.0 mm 0.00 in0.0 mm 0.00 in0.0 mm
12:27 AM 41.9°F5.5°C 28.6°F-1.9°C 59% 19.0 mph WSW30.6 kmh WSW 21.3 mph34.3 kmh 30.32 in1026.8 mb 0.00 in0.0 mm 0.00 in0.0 mm 0.00 in0.0 mm
12:29 AM 41.9°F5.5°C 28.6°F-1.9°C 59% 17.5 mph 28.2 kmh 19.0 mph30.6 kmh 30.33 in1027.1 mb 0.00 in0.0 mm 0.00 in0.0 mm 0.00 in0.0 mm
12:31 AM 41.9°F5.5°C 29.0°F-1.7°C 60% 16.8 mph 27.0 kmh 18.3 mph29.5 kmh 30.32 in1026.8 mb 0.00 in0.0 mm 0.00 in0.0 mm 0.00 in0.0 mm
12:33 AM 41.7°F5.4°C 28.9°F-1.7°C 60% 21.3 mph NE34.3 kmh NE 22.2 mph35.7 kmh 30.32 in1026.8 mb 0.00 in0.0 mm 0.00 in0.0 mm 0.00 in0.0 mm
12:35 AM 41.7°F5.4°C 28.9°F-1.7°C 60% 19.0 mph NNE30.6 kmh NNE 19.7 mph31.7 kmh 30.32 in1026.8 mb 0.00 in0.0 mm 0.00 in0.0 mm 0.00 in0.0 mm
12:37 AM 41.7°F5.4°C 28.9°F-1.7°C 60% 19.0 mph 30.6 kmh 20.6 mph33.2 kmh 30.32 in1026.8 mb 0.00 in0.0 mm 0.00 in0.0 mm 0.00 in0.0 mm
12:39 AM 41.7°F5.4°C 28.9°F-1.7°C 60% 13.7 mph NNE22.0 kmh NNE 15.9 mph25.6 kmh 30.32 in1026.8 mb 0.00 in0.0 mm 0.00 in0.0 mm 0.00 in0.0 mm
12:41 AM 41.5°F5.3°C 28.7°F-1.8°C 60% 15.9 mph 25.6 kmh 17.5 mph28.2 kmh 30.33 in1027.1 mb 0.00 in0.0 mm 0.00 in0.0 mm 0.00 in0.0 mm
12:43 AM 41.5°F5.3°C 28.7°F-1.8°C 60% 19.0 mph 30.6 kmh 21.3 mph34.3 kmh 30.33 in1027.1 mb 0.00 in0.0 mm 0.00 in0.0 mm 0.00 in0.0 mm
12:45 AM 41.5°F5.3°C 28.7°F-1.8°C 60% 15.9 mph 25.6 kmh 17.5 mph28.2 kmh 30.33 in1027.1 mb 0.00 in0.0 mm 0.00 in0.0 mm 0.00 in0.0 mm
12:47 AM 41.5°F5.3°C 28.7°F-1.8°C 60% 16.8 mph 27.0 kmh 19.7 mph31.7 kmh 30.33 in1027.1 mb 0.00 in0.0 mm 0.00 in0.0 mm 0.00 in0.0 mm
12:49 AM 41.5°F5.3°C 28.7°F-1.8°C 60% 17.5 mph 28.2 kmh 19.0 mph30.6 kmh 30.32 in1026.8 mb 0.00 in0.0 mm 0.00 in0.0 mm 0.00 in0.0 mm
12:51 AM 41.5°F5.3°C 28.7°F-1.8°C 60% 18.3 mph 29.5 kmh 19.0 mph30.6 kmh 30.33 in1027.1 mb 0.00 in0.0 mm 0.00 in0.0 mm 0.00 in0.0 mm
12:53 AM 41.5°F5.3°C 28.7°F-1.8°C 60% 16.8 mph 27.0 kmh 18.3 mph29.5 kmh 30.33 in1027.1 mb 0.00 in0.0 mm 0.00 in0.0 mm 0.00 in0.0 mm
12:55 AM 41.5°F5.3°C 28.7°F-1.8°C 60% 16.8 mph 27.0 kmh 18.3 mph29.5 kmh 30.33 in1027.1 mb 0.00 in0.0 mm 0.00 in0.0 mm 0.00 in0.0 mm
12:57 AM 41.5°F5.3°C 28.7°F-1.8°C 60% 15.9 mph 25.6 kmh 17.5 mph28.2 kmh 30.32 in1026.8 mb 0.00 in0.0 mm 0.00 in0.0 mm 0.00 in0.0 mm
12:59 AM 41.4°F5.2°C 28.5°F-1.9°C 60% 13.7 mph 22.0 kmh 14.5 mph23.3 kmh 30.33 in1027.1 mb 0.00 in0.0 mm 0.00 in0.0 mm 0.00 in0.0 mm
01:01 AM 41.4°F5.2°C 28.5°F-1.9°C 60% 13.7 mph 22.0 kmh 15.9 mph25.6 kmh 30.34 in1027.4 mb 0.00 in0.0 mm 0.00 in0.0 mm 0.00 in0.0 mm
01:03 AM 41.4°F5.2°C 28.5°F-1.9°C 60% 13.7 mph 22.0 kmh 15.9 mph25.6 kmh 30.33 in1027.1 mb 0.00 in0.0 mm 0.00 in0.0 mm 0.00 in0.0 mm
01:05 AM 41.4°F5.2°C 28.5°F-1.9°C 60% 13.0 mph 20.9 kmh 14.5 mph23.3 kmh 30.33 in1027.1 mb 0.00 in0.0 mm 0.00 in0.0 mm 0.00 in0.0 mm
01:07 AM 41.4°F5.2°C 28.5°F-1.9°C 60% 14.5 mph 23.3 kmh 15.9 mph25.6 kmh 30.33 in1027.1 mb 0.00 in0.0 mm 0.00 in0.0 mm 0.00 in0.0 mm
01:09 AM 41.5°F5.3°C 28.7°F-1.8°C 60% 13.7 mph 22.0 kmh 15.2 mph24.5 kmh 30.33 in1027.1 mb 0.00 in0.0 mm 0.00 in0.0 mm 0.00 in0.0 mm
01:11 AM 41.5°F5.3°C 27.9°F-2.3°C 58% 13.7 mph 22.0 kmh 15.2 mph24.5 kmh 30.33 in1027.1 mb 0.00 in0.0 mm 0.00 in0.0 mm 0.00 in0.0 mm
01:13 AM 41.4°F5.2°C 28.1°F-2.2°C 59% 11.4 mph 18.3 kmh 13.0 mph20.9 kmh 30.33 in1027.1 mb 0.00 in0.0 mm 0.00 in0.0 mm 0.00 in0.0 mm
01:15 AM 41.4°F5.2°C 28.5°F-1.9°C 60% 13.7 mph 22.0 kmh 14.5 mph23.3 kmh 30.34 in1027.4 mb 0.00 in0.0 mm 0.00 in0.0 mm 0.00 in0.0 mm
01:17 AM 41.4°F5.2°C 28.5°F-1.9°C 60% 15.2 mph 24.5 kmh 15.9 mph25.6 kmh 30.34 in1027.4 mb 0.00 in0.0 mm 0.00 in0.0 mm 0.00 in0.0 mm
01:19 AM 41.4°F5.2°C 28.1°F-2.2°C 59% 15.9 mph 25.6 kmh 17.5 mph28.2 kmh 30.34 in1027.4 mb 0.00 in0.0 mm 0.00 in0.0 mm 0.00 in0.0 mm
01:21 AM 41.5°F5.3°C 28.7°F-1.8°C 60% 13.7 mph 22.0 kmh 15.2 mph24.5 kmh 30.34 in1027.4 mb 0.00 in0.0 mm 0.00 in0.0 mm 0.00 in0.0 mm
01:23 AM 41.5°F5.3°C 28.7°F-1.8°C 60% 13.0 mph 20.9 kmh 13.7 mph22.0 kmh 30.34 in1027.4 mb 0.00 in0.0 mm 0.00 in0.0 mm 0.00 in0.0 mm
01:25 AM 41.5°F5.3°C 28.7°F-1.8°C 60% 13.0 mph 20.9 kmh 14.5 mph23.3 kmh 30.34 in1027.4 mb 0.00 in0.0 mm 0.00 in0.0 mm 0.00 in0.0 mm
01:27 AM 41.5°F5.3°C 28.7°F-1.8°C 60% 13.7 mph 22.0 kmh 14.5 mph23.3 kmh 30.34 in1027.4 mb 0.00 in0.0 mm 0.00 in0.0 mm 0.00 in0.0 mm
01:29 AM 41.5°F5.3°C 28.7°F-1.8°C 60% 14.5 mph 23.3 kmh 15.2 mph24.5 kmh 30.34 in1027.4 mb 0.00 in0.0 mm 0.00 in0.0 mm 0.00 in0.0 mm
01:31 AM 41.5°F5.3°C 28.7°F-1.8°C 60% 13.0 mph 20.9 kmh 14.5 mph23.3 kmh 30.34 in1027.4 mb 0.00 in0.0 mm 0.00 in0.0 mm 0.00 in0.0 mm
01:33 AM 41.5°F5.3°C 28.7°F-1.8°C 60% 13.0 mph 20.9 kmh 13.7 mph22.0 kmh 30.34 in1027.4 mb 0.00 in0.0 mm 0.00 in0.0 mm 0.00 in0.0 mm
01:35 AM 41.7°F5.4°C 28.9°F-1.7°C 60% 15.2 mph 24.5 kmh 16.8 mph27.0 kmh 30.34 in1027.4 mb 0.00 in0.0 mm 0.00 in0.0 mm 0.00 in0.0 mm
01:37 AM 41.7°F5.4°C 28.9°F-1.7°C 60% 13.0 mph 20.9 kmh 13.7 mph22.0 kmh 30.34 in1027.4 mb 0.00 in0.0 mm 0.00 in0.0 mm 0.00 in0.0 mm
01:39 AM 41.7°F5.4°C 28.9°F-1.7°C 60% 10.7 mph 17.2 kmh 12.1 mph19.5 kmh 30.35 in1027.8 mb 0.00 in0.0 mm 0.00 in0.0 mm 0.00 in0.0 mm
01:41 AM 41.7°F5.4°C 28.9°F-1.7°C 60% 9.8 mph 15.8 kmh 11.4 mph18.3 kmh 30.34 in1027.4 mb 0.00 in0.0 mm 0.00 in0.0 mm 0.00 in0.0 mm
01:43 AM 41.7°F5.4°C 28.9°F-1.7°C 60% 11.4 mph 18.3 kmh 13.0 mph20.9 kmh 30.35 in1027.8 mb 0.00 in0.0 mm 0.00 in0.0 mm 0.00 in0.0 mm
01:45 AM 41.7°F5.4°C 28.9°F-1.7°C 60% 12.1 mph 19.5 kmh 13.0 mph20.9 kmh 30.35 in1027.8 mb 0.00 in0.0 mm 0.00 in0.0 mm 0.00 in0.0 mm
01:47 AM 41.7°F5.4°C 28.9°F-1.7°C 60% 10.7 mph 17.2 kmh 11.4 mph18.3 kmh 30.35 in1027.8 mb 0.00 in0.0 mm 0.00 in0.0 mm 0.00 in0.0 mm
01:49 AM 41.7°F5.4°C 28.9°F-1.7°C 60% 12.1 mph 19.5 kmh 13.7 mph22.0 kmh 30.35 in1027.8 mb 0.00 in0.0 mm 0.00 in0.0 mm 0.00 in0.0 mm
01:51 AM 41.7°F5.4°C 28.1°F-2.2°C 58% 16.8 mph 27.0 kmh 18.3 mph29.5 kmh 30.35 in1027.8 mb 0.00 in0.0 mm 0.00 in0.0 mm 0.00 in0.0 mm
01:53 AM 41.7°F5.4°C 28.1°F-2.2°C 58% 18.3 mph 29.5 kmh 20.6 mph33.2 kmh 30.35 in1027.8 mb 0.00 in0.0 mm 0.00 in0.0 mm 0.00 in0.0 mm
01:55 AM 41.7°F5.4°C 28.1°F-2.2°C 58% 13.0 mph 20.9 kmh 14.5 mph23.3 kmh 30.35 in1027.8 mb 0.00 in0.0 mm 0.00 in0.0 mm 0.00 in0.0 mm
01:57 AM 41.7°F5.4°C 28.1°F-2.2°C 58% 13.7 mph 22.0 kmh 15.2 mph24.5 kmh 30.35 in1027.8 mb 0.00 in0.0 mm 0.00 in0.0 mm 0.00 in0.0 mm
01:59 AM 41.9°F5.5°C 28.2°F-2.1°C 58% 15.2 mph 24.5 kmh 15.9 mph25.6 kmh 30.35 in1027.8 mb 0.00 in0.0 mm 0.00 in0.0 mm 0.00 in0.0 mm
02:01 AM 41.9°F5.5°C 27.8°F-2.3°C 57% 15.9 mph 25.6 kmh 16.8 mph27.0 kmh 30.35 in1027.8 mb 0.00 in0.0 mm 0.00 in0.0 mm 0.00 in0.0 mm
02:04 AM 41.9°F5.5°C 27.8°F-2.3°C 57% 15.9 mph 25.6 kmh 16.8 mph27.0 kmh 30.35 in1027.8 mb 0.00 in0.0 mm 0.00 in0.0 mm 0.00 in0.0 mm
02:06 AM 41.9°F5.5°C 27.8°F-2.3°C 57% 15.9 mph 25.6 kmh 16.8 mph27.0 kmh 30.35 in1027.8 mb 0.00 in0.0 mm 0.00 in0.0 mm 0.00 in0.0 mm
02:08 AM 41.9°F5.5°C 27.8°F-2.3°C 57% 15.9 mph 25.6 kmh 16.8 mph27.0 kmh 30.35 in1027.8 mb 0.00 in0.0 mm 0.00 in0.0 mm 0.00 in0.0 mm
02:09 AM 41.9°F5.5°C 27.8°F-2.3°C 57% 15.9 mph 25.6 kmh 16.8 mph27.0 kmh 30.35 in1027.8 mb 0.00 in0.0 mm 0.00 in0.0 mm 0.00 in0.0 mm
02:11 AM 41.9°F5.5°C 28.2°F-2.1°C 58% 13.0 mph 20.9 kmh 14.5 mph23.3 kmh 30.35 in1027.8 mb 0.00 in0.0 mm 0.00 in0.0 mm 0.00 in0.0 mm
02:13 AM 41.7°F5.4°C 28.5°F-1.9°C 59% 13.7 mph 22.0 kmh 15.2 mph24.5 kmh 30.36 in1028.1 mb 0.00 in0.0 mm 0.00 in0.0 mm 0.00 in0.0 mm
02:15 AM 41.7°F5.4°C 27.6°F-2.4°C 57% 17.5 mph 28.2 kmh 18.3 mph29.5 kmh 30.36 in1028.1 mb 0.00 in0.0 mm 0.00 in0.0 mm 0.00 in0.0 mm
02:17 AM 41.7°F5.4°C 27.2°F-2.7°C 56% 15.9 mph 25.6 kmh 18.3 mph29.5 kmh 30.36 in1028.1 mb 0.00 in0.0 mm 0.00 in0.0 mm 0.00 in0.0 mm
02:19 AM 41.7°F5.4°C 28.1°F-2.2°C 58% 15.9 mph 25.6 kmh 17.5 mph28.2 kmh 30.36 in1028.1 mb 0.00 in0.0 mm 0.00 in0.0 mm 0.00 in0.0 mm
02:21 AM 41.7°F5.4°C 27.2°F-2.7°C 56% 17.5 mph 28.2 kmh 19.0 mph30.6 kmh 30.36 in1028.1 mb 0.00 in0.0 mm 0.00 in0.0 mm 0.00 in0.0 mm
02:23 AM 41.7°F5.4°C 27.6°F-2.4°C 57% 16.8 mph 27.0 kmh 17.5 mph28.2 kmh 30.36 in1028.1 mb 0.00 in0.0 mm 0.00 in0.0 mm 0.00 in0.0 mm
02:25 AM 41.7°F5.4°C 27.2°F-2.7°C 56% 15.2 mph 24.5 kmh 16.8 mph27.0 kmh 30.36 in1028.1 mb 0.00 in0.0 mm 0.00 in0.0 mm 0.00 in0.0 mm
02:27 AM 41.7°F5.4°C 27.2°F-2.7°C 56% 15.9 mph 25.6 kmh 16.8 mph27.0 kmh 30.36 in1028.1 mb 0.00 in0.0 mm 0.00 in0.0 mm 0.00 in0.0 mm
02:29 AM 41.5°F5.3°C 26.6°F-3.0°C 55% 15.2 mph 24.5 kmh 16.8 mph27.0 kmh 30.36 in1028.1 mb 0.00 in0.0 mm 0.00 in0.0 mm 0.00 in0.0 mm
02:31 AM 41.5°F5.3°C 27.0°F-2.8°C 56% 15.9 mph 25.6 kmh 17.5 mph28.2 kmh 30.36 in1028.1 mb 0.00 in0.0 mm 0.00 in0.0 mm 0.00 in0.0 mm
02:33 AM 41.5°F5.3°C 26.6°F-3.0°C 55% 15.2 mph 24.5 kmh 15.9 mph25.6 kmh 30.37 in1028.4 mb 0.00 in0.0 mm 0.00 in0.0 mm 0.00 in0.0 mm
02:35 AM 41.5°F5.3°C 26.6°F-3.0°C 55% 13.0 mph 20.9 kmh 13.7 mph22.0 kmh 30.36 in1028.1 mb 0.00 in0.0 mm 0.00 in0.0 mm 0.00 in0.0 mm
02:37 AM 41.4°F5.2°C 26.9°F-2.8°C 56% 13.7 mph 22.0 kmh 15.2 mph24.5 kmh 30.36 in1028.1 mb 0.00 in0.0 mm 0.00 in0.0 mm 0.00 in0.0 mm
02:39 AM 41.4°F5.2°C 27.3°F-2.6°C 57% 13.7 mph 22.0 kmh 14.5 mph23.3 kmh 30.37 in1028.4 mb 0.00 in0.0 mm 0.00 in0.0 mm 0.00 in0.0 mm
02:41 AM 41.4°F5.2°C 27.7°F-2.4°C 58% 15.2 mph 24.5 kmh 15.9 mph25.6 kmh 30.37 in1028.4 mb 0.00 in0.0 mm 0.00 in0.0 mm 0.00 in0.0 mm
02:43 AM 41.4°F5.2°C 27.3°F-2.6°C 57% 18.3 mph 29.5 kmh 19.7 mph31.7 kmh 30.36 in1028.1 mb 0.00 in0.0 mm 0.00 in0.0 mm 0.00 in0.0 mm
02:45 AM 41.4°F5.2°C 27.7°F-2.4°C 58% 15.2 mph 24.5 kmh 16.8 mph27.0 kmh 30.36 in1028.1 mb 0.00 in0.0 mm 0.00 in0.0 mm 0.00 in0.0 mm
02:47 AM 41.2°F5.1°C 26.7°F-2.9°C 56% 16.8 mph 27.0 kmh 17.5 mph28.2 kmh 30.36 in1028.1 mb 0.00 in0.0 mm 0.00 in0.0 mm 0.00 in0.0 mm
02:49 AM 41.2°F5.1°C 26.7°F-2.9°C 56% 13.0 mph NNW20.9 kmh NNW 14.5 mph23.3 kmh 30.36 in1028.1 mb 0.00 in0.0 mm 0.00 in0.0 mm 0.00 in0.0 mm
02:51 AM 41.0°F5.0°C 27.0°F-2.8°C 57% 14.5 mph 23.3 kmh 15.9 mph25.6 kmh 30.36 in1028.1 mb 0.00 in0.0 mm 0.00 in0.0 mm 0.00 in0.0 mm
02:53 AM 41.0°F5.0°C 27.0°F-2.8°C 57% 13.7 mph 22.0 kmh 15.2 mph24.5 kmh 30.36 in1028.1 mb 0.00 in0.0 mm 0.00 in0.0 mm 0.00 in0.0 mm
02:55 AM 41.0°F5.0°C 27.4°F-2.6°C 58% 15.2 mph 24.5 kmh 16.8 mph27.0 kmh 30.36 in1028.1 mb 0.00 in0.0 mm 0.00 in0.0 mm 0.00 in0.0 mm
02:57 AM 41.0°F5.0°C 27.4°F-2.6°C 58% 13.0 mph 20.9 kmh 13.7 mph22.0 kmh 30.36 in1028.1 mb 0.00 in0.0 mm 0.00 in0.0 mm 0.00 in0.0 mm
02:59 AM 41.2°F5.1°C 27.5°F-2.5°C 58% 17.5 mph 28.2 kmh 18.3 mph29.5 kmh 30.36 in1028.1 mb 0.00 in0.0 mm 0.00 in0.0 mm 0.00 in0.0 mm
03:01 AM 41.2°F5.1°C 27.1°F-2.7°C 57% 13.7 mph 22.0 kmh 14.5 mph23.3 kmh 30.36 in1028.1 mb 0.00 in0.0 mm 0.00 in0.0 mm 0.00 in0.0 mm
03:03 AM 41.2°F5.1°C 27.1°F-2.7°C 57% 14.5 mph 23.3 kmh 15.9 mph25.6 kmh 30.36 in1028.1 mb 0.00 in0.0 mm 0.00 in0.0 mm 0.00 in0.0 mm
03:05 AM 41.2°F5.1°C 27.5°F-2.5°C 58% 15.2 mph 24.5 kmh 16.8 mph27.0 kmh 30.36 in1028.1 mb 0.00 in0.0 mm 0.00 in0.0 mm 0.00 in0.0 mm
03:07 AM 41.2°F5.1°C 27.5°F-2.5°C 58% 14.5 mph 23.3 kmh 15.9 mph25.6 kmh 30.36 in1028.1 mb 0.00 in0.0 mm 0.00 in0.0 mm 0.00 in0.0 mm
03:09 AM 41.2°F5.1°C 27.1°F-2.7°C 57% 15.2 mph 24.5 kmh 15.9 mph25.6 kmh 30.36 in1028.1 mb 0.00 in0.0 mm 0.00 in0.0 mm 0.00 in0.0 mm
03:12 AM 41.2°F5.1°C 27.1°F-2.7°C 57% 13.0 mph 20.9 kmh 14.5 mph23.3 kmh 30.35 in1027.8 mb 0.00 in0.0 mm 0.00 in0.0 mm 0.00 in0.0 mm
03:14 AM 41.0°F5.0°C 27.4°F-2.6°C 58% 12.1 mph 19.5 kmh 13.7 mph22.0 kmh 30.35 in1027.8 mb 0.00 in0.0 mm 0.00 in0.0 mm 0.00 in0.0 mm
03:16 AM 41.0°F5.0°C 27.0°F-2.8°C 57% 11.4 mph 18.3 kmh 13.0 mph20.9 kmh 30.36 in1028.1 mb 0.00 in0.0 mm 0.00 in0.0 mm 0.00 in0.0 mm
03:18 AM 41.0°F5.0°C 26.5°F-3.1°C 56% 13.0 mph 20.9 kmh 14.5 mph23.3 kmh 30.36 in1028.1 mb 0.00 in0.0 mm 0.00 in0.0 mm 0.00 in0.0 mm
03:20 AM 41.0°F5.0°C 26.5°F-3.1°C 56% 13.7 mph 22.0 kmh 14.5 mph23.3 kmh 30.36 in1028.1 mb 0.00 in0.0 mm 0.00 in0.0 mm 0.00 in0.0 mm
03:22 AM 41.0°F5.0°C 26.5°F-3.1°C 56% 13.7 mph 22.0 kmh 14.5 mph23.3 kmh 30.36 in1028.1 mb 0.00 in0.0 mm 0.00 in0.0 mm 0.00 in0.0 mm
03:24 AM 41.0°F5.0°C 26.5°F-3.1°C 56% 13.7 mph 22.0 kmh 14.5 mph23.3 kmh 30.36 in1028.1 mb 0.00 in0.0 mm 0.00 in0.0 mm 0.00 in0.0 mm
03:26 AM 41.0°F5.0°C 27.0°F-2.8°C 57% 15.9 mph 25.6 kmh 17.5 mph28.2 kmh 30.36 in1028.1 mb 0.00 in0.0 mm 0.00 in0.0 mm 0.00 in0.0 mm
03:28 AM 41.0°F5.0°C 26.1°F-3.3°C 55% 11.4 mph 18.3 kmh 13.0 mph20.9 kmh 30.36 in1028.1 mb 0.00 in0.0 mm 0.00 in0.0 mm 0.00 in0.0 mm
03:30 AM 41.0°F5.0°C 26.5°F-3.1°C 56% 14.5 mph 23.3 kmh 15.2 mph24.5 kmh 30.36 in1028.1 mb 0.00 in0.0 mm 0.00 in0.0 mm 0.00 in0.0 mm
03:32 AM 41.0°F5.0°C 27.0°F-2.8°C 57% 13.7 mph 22.0 kmh 15.2 mph24.5 kmh 30.36 in1028.1 mb 0.00 in0.0 mm 0.00 in0.0 mm 0.00 in0.0 mm
03:34 AM 41.0°F5.0°C 27.0°F-2.8°C 57% 14.5 mph 23.3 kmh 15.2 mph24.5 kmh 30.36 in1028.1 mb 0.00 in0.0 mm 0.00 in0.0 mm 0.00 in0.0 mm
03:36 AM 41.0°F5.0°C 27.0°F-2.8°C 57% 13.0 mph 20.9 kmh 13.7 mph22.0 kmh 30.36 in1028.1 mb 0.00 in0.0 mm 0.00 in0.0 mm 0.00 in0.0 mm
03:38 AM 41.0°F5.0°C 27.4°F-2.6°C 58% 12.1 mph 19.5 kmh 13.7 mph22.0 kmh 30.36 in1028.1 mb 0.00 in0.0 mm 0.00 in0.0 mm 0.00 in0.0 mm
03:40 AM 40.8°F4.9°C 27.2°F-2.7°C 58% 13.7 mph 22.0 kmh 15.2 mph24.5 kmh 30.35 in1027.8 mb 0.00 in0.0 mm 0.00 in0.0 mm 0.00 in0.0 mm
03:42 AM 40.8°F4.9°C 26.4°F-3.1°C 56% 13.7 mph 22.0 kmh 14.5 mph23.3 kmh 30.36 in1028.1 mb 0.00 in0.0 mm 0.00 in0.0 mm 0.00 in0.0 mm
03:44 AM 41.0°F5.0°C 26.5°F-3.1°C 56% 13.0 mph 20.9 kmh 13.7 mph22.0 kmh 30.37 in1028.4 mb 0.00 in0.0 mm 0.00 in0.0 mm 0.00 in0.0 mm
03:46 AM 40.8°F4.9°C 26.4°F-3.1°C 56% 14.5 mph 23.3 kmh 15.2 mph24.5 kmh 30.35 in1027.8 mb 0.00 in0.0 mm 0.00 in0.0 mm 0.00 in0.0 mm
03:48 AM 40.8°F4.9°C 26.4°F-3.1°C 56% 13.7 mph 22.0 kmh 15.2 mph24.5 kmh 30.36 in1028.1 mb 0.00 in0.0 mm 0.00 in0.0 mm 0.00 in0.0 mm
03:50 AM 40.8°F4.9°C 27.6°F-2.4°C 59% 13.7 mph 22.0 kmh 15.2 mph24.5 kmh 30.36 in1028.1 mb 0.00 in0.0 mm 0.00 in0.0 mm 0.00 in0.0 mm
03:52 AM 40.8°F4.9°C 27.2°F-2.7°C 58% 13.0 mph 20.9 kmh 13.7 mph22.0 kmh 30.35 in1027.8 mb 0.00 in0.0 mm 0.00 in0.0 mm 0.00 in0.0 mm
03:54 AM 40.6°F4.8°C 27.0°F-2.8°C 58% 12.1 mph 19.5 kmh 13.0 mph20.9 kmh 30.36 in1028.1 mb 0.00 in0.0 mm 0.00 in0.0 mm 0.00 in0.0 mm
03:56 AM 40.6°F4.8°C 26.6°F-3.0°C 57% 14.5 mph 23.3 kmh 15.2 mph24.5 kmh 30.36 in1028.1 mb 0.00 in0.0 mm 0.00 in0.0 mm 0.00 in0.0 mm
03:58 AM 40.6°F4.8°C 26.2°F-3.2°C 56% 15.2 mph 24.5 kmh 15.9 mph25.6 kmh 30.36 in1028.1 mb 0.00 in0.0 mm 0.00 in0.0 mm 0.00 in0.0 mm
04:00 AM 40.8°F4.9°C 26.4°F-3.1°C 56% 13.7 mph 22.0 kmh 15.2 mph24.5 kmh 30.36 in1028.1 mb 0.00 in0.0 mm 0.00 in0.0 mm 0.00 in0.0 mm
04:02 AM 40.8°F4.9°C 27.2°F-2.7°C 58% 13.7 mph 22.0 kmh 15.2 mph24.5 kmh 30.36 in1028.1 mb 0.00 in0.0 mm 0.00 in0.0 mm 0.00 in0.0 mm
04:04 AM 40.6°F4.8°C 27.0°F-2.8°C 58% 13.0 mph 20.9 kmh 14.5 mph23.3 kmh 30.36 in1028.1 mb 0.00 in0.0 mm 0.00 in0.0 mm 0.00 in0.0 mm
04:06 AM 40.6°F4.8°C 27.0°F-2.8°C 58% 13.0 mph 20.9 kmh 13.7 mph22.0 kmh 30.36 in1028.1 mb 0.00 in0.0 mm 0.00 in0.0 mm 0.00 in0.0 mm
04:08 AM 40.6°F4.8°C 27.9°F-2.3°C 60% 10.7 mph 17.2 kmh 12.1 mph19.5 kmh 30.36 in1028.1 mb 0.00 in0.0 mm 0.00 in0.0 mm 0.00 in0.0 mm
04:10 AM 40.5°F4.7°C 27.3°F-2.6°C 59% 12.1 mph NW19.5 kmh NW 13.7 mph22.0 kmh 30.36 in1028.1 mb 0.00 in0.0 mm 0.00 in0.0 mm 0.00 in0.0 mm
04:12 AM 40.1°F4.5°C 27.4°F-2.6°C 60% 13.0 mph NNW20.9 kmh NNW 13.7 mph22.0 kmh 30.36 in1028.1 mb 0.00 in0.0 mm 0.00 in0.0 mm 0.00 in0.0 mm
04:14 AM 39.4°F4.1°C 27.1°F-2.7°C 61% 13.0 mph NW20.9 kmh NW 14.5 mph23.3 kmh 30.36 in1028.1 mb 0.00 in0.0 mm 0.00 in0.0 mm 0.00 in0.0 mm
04:16 AM 39.2°F4.0°C 26.9°F-2.8°C 61% 14.5 mph NW23.3 kmh NW 15.9 mph25.6 kmh 30.36 in1028.1 mb 0.00 in0.0 mm 0.00 in0.0 mm 0.00 in0.0 mm
04:18 AM 38.8°F3.8°C 27.0°F-2.8°C 62% 14.5 mph NW23.3 kmh NW 15.9 mph25.6 kmh 30.36 in1028.1 mb 0.00 in0.0 mm 0.00 in0.0 mm 0.00 in0.0 mm
04:20 AM 38.8°F3.8°C 27.0°F-2.8°C 62% 14.5 mph NW23.3 kmh NW 15.9 mph25.6 kmh 30.37 in1028.4 mb 0.00 in0.0 mm 0.00 in0.0 mm 0.00 in0.0 mm
04:22 AM 38.7°F3.7°C 26.8°F-2.9°C 62% 14.5 mph NNW23.3 kmh NNW 15.9 mph25.6 kmh 30.36 in1028.1 mb 0.00 in0.0 mm 0.00 in0.0 mm 0.00 in0.0 mm
04:24 AM 38.7°F3.7°C 27.2°F-2.7°C 63% 14.5 mph NNW23.3 kmh NNW 15.2 mph24.5 kmh 30.36 in1028.1 mb 0.00 in0.0 mm 0.00 in0.0 mm 0.00 in0.0 mm
04:26 AM 38.8°F3.8°C 27.3°F-2.6°C 63% 13.7 mph NNW22.0 kmh NNW 14.5 mph23.3 kmh 30.36 in1028.1 mb 0.00 in0.0 mm 0.00 in0.0 mm 0.00 in0.0 mm
04:28 AM 38.8°F3.8°C 27.7°F-2.4°C 64% 13.7 mph NW22.0 kmh NW 15.2 mph24.5 kmh 30.36 in1028.1 mb 0.00 in0.0 mm 0.00 in0.0 mm 0.00 in0.0 mm